RRR134 EGVN-EGVN
Flight info
| Callsign | RRR134 |
|---|---|
| Flight time | 0h 14m |
| Altitude | 8000 |
| Route | HON297031 DCT CWZ251017 DCT 5318N00056E 5312N00208E DCT CWZ251017 DCT HON297031 |
| Aircraft | A332/H-SDE3GHIJ2J3J5M1RVWXY/LB2D1 |
Departure
| Time | 2026-04-29 18:10 |
|---|---|
| Airport | RAF Brize Norton (EGVN) |
Arrival
| Time | 2026-04-29 18:24 |
|---|---|
| Airport | RAF Brize Norton (EGVN) |
| Time | Latitude | Longitude | Altitude | Speed | Heading |
|---|---|---|---|---|---|
| 2026-04-29 18:05 | 51.74503 | -1.59311 | 268 ft | 0 kts | 253° |
| 2026-04-29 18:05 | 51.74503 | -1.59313 | 268 ft | 1 kts | 253° |
| 2026-04-29 18:05 | 51.74493 | -1.59369 | 268 ft | 9 kts | 254° |
| 2026-04-29 18:06 | 51.74472 | -1.59476 | 268 ft | 11 kts | 252° |
| 2026-04-29 18:06 | 51.74447 | -1.59610 | 268 ft | 14 kts | 254° |
| 2026-04-29 18:06 | 51.74427 | -1.59766 | 268 ft | 14 kts | 272° |
| 2026-04-29 18:06 | 51.74462 | -1.59937 | 268 ft | 17 kts | 299° |
| 2026-04-29 18:07 | 51.74524 | -1.60047 | 268 ft | 0 kts | 330° |
| 2026-04-29 18:09 | 51.74543 | -1.60062 | 268 ft | 12 kts | 337° |
| 2026-04-29 18:09 | 51.74656 | -1.60067 | 267 ft | 17 kts | 36° |
| 2026-04-29 18:09 | 51.74709 | -1.59859 | 266 ft | 36 kts | 72° |
| 2026-04-29 18:09 | 51.74852 | -1.59093 | 270 ft | 105 kts | 74° |
| 2026-04-29 18:10 | 51.75120 | -1.57631 | 311 ft | 163 kts | 72° |
| 2026-04-29 18:10 | 51.75502 | -1.55739 | 820 ft | 194 kts | 73° |
| 2026-04-29 18:10 | 51.75890 | -1.53641 | 1896 ft | 198 kts | 75° |
| 2026-04-29 18:10 | 51.76416 | -1.51464 | 2226 ft | 219 kts | 59° |
| 2026-04-29 18:11 | 51.77592 | -1.49841 | 2280 ft | 232 kts | 30° |
| 2026-04-29 18:11 | 51.79234 | -1.49425 | 2296 ft | 251 kts | 1° |
| 2026-04-29 18:11 | 51.80913 | -1.50432 | 2282 ft | 268 kts | 331° |
| 2026-04-29 18:11 | 51.82180 | -1.52690 | 2290 ft | 280 kts | 302° |
| 2026-04-29 18:12 | 51.82772 | -1.55708 | 2288 ft | 286 kts | 277° |
| 2026-04-29 18:12 | 51.82546 | -1.58875 | 2287 ft | 285 kts | 247° |
| 2026-04-29 18:12 | 51.81499 | -1.61520 | 2289 ft | 277 kts | 218° |
| 2026-04-29 18:12 | 51.79903 | -1.63058 | 2302 ft | 264 kts | 189° |
| 2026-04-29 18:13 | 51.78130 | -1.63211 | 2296 ft | 250 kts | 161° |
| 2026-04-29 18:13 | 51.76627 | -1.62006 | 2289 ft | 237 kts | 132° |
| 2026-04-29 18:13 | 51.75535 | -1.60053 | 2290 ft | 234 kts | 125° |
| 2026-04-29 18:13 | 51.74491 | -1.58028 | 2293 ft | 236 kts | 127° |
| 2026-04-29 18:14 | 51.73159 | -1.56431 | 2295 ft | 245 kts | 148° |
| 2026-04-29 18:14 | 51.71547 | -1.55467 | 2296 ft | 251 kts | 160° |
| 2026-04-29 18:14 | 51.70375 | -1.55332 | 2292 ft | 261 kts | 179° |
| 2026-04-29 18:14 | 51.68631 | -1.56321 | 2292 ft | 276 kts | 207° |
| 2026-04-29 18:15 | 51.67169 | -1.58412 | 2297 ft | 285 kts | 225° |
| 2026-04-29 18:15 | 51.65947 | -1.60928 | 2295 ft | 285 kts | 230° |
| 2026-04-29 18:15 | 51.64770 | -1.63495 | 2269 ft | 285 kts | 230° |
| 2026-04-29 18:15 | 51.63218 | -1.66902 | 2281 ft | 285 kts | 230° |
| 2026-04-29 18:16 | 51.62426 | -1.68648 | 2266 ft | 285 kts | 230° |
| 2026-04-29 18:16 | 51.61259 | -1.71204 | 2279 ft | 284 kts | 230° |
| 2026-04-29 18:16 | 51.60222 | -1.73904 | 2279 ft | 287 kts | 244° |
| 2026-04-29 18:16 | 51.59762 | -1.77032 | 2276 ft | 289 kts | 270° |
| 2026-04-29 18:17 | 51.60248 | -1.80101 | 2274 ft | 282 kts | 305° |
| 2026-04-29 18:17 | 51.61501 | -1.82452 | 2282 ft | 278 kts | 317° |
| 2026-04-29 18:17 | 51.62766 | -1.84850 | 2268 ft | 280 kts | 314° |
| 2026-04-29 18:17 | 51.64064 | -1.87158 | 2278 ft | 276 kts | 324° |
| 2026-04-29 18:18 | 51.65637 | -1.88741 | 2279 ft | 263 kts | 349° |
| 2026-04-29 18:18 | 51.67319 | -1.88807 | 2282 ft | 228 kts | 26° |
| 2026-04-29 18:18 | 51.68546 | -1.87512 | 2303 ft | 201 kts | 50° |
| 2026-04-29 18:18 | 51.69388 | -1.85855 | 2273 ft | 182 kts | 60° |
| 2026-04-29 18:19 | 51.70040 | -1.84218 | 2271 ft | 165 kts | 62° |
| 2026-04-29 18:19 | 51.70543 | -1.82681 | 2274 ft | 145 kts | 73° |
| 2026-04-29 18:19 | 51.70829 | -1.81225 | 2266 ft | 127 kts | 76° |
| 2026-04-29 18:19 | 51.71039 | -1.79926 | 2275 ft | 111 kts | 78° |
| 2026-04-29 18:20 | 51.71213 | -1.78786 | 2277 ft | 101 kts | 77° |
| 2026-04-29 18:20 | 51.71397 | -1.77712 | 2269 ft | 99 kts | 76° |
| 2026-04-29 18:20 | 51.71603 | -1.76654 | 2270 ft | 99 kts | 74° |
| 2026-04-29 18:20 | 51.71817 | -1.75595 | 2276 ft | 100 kts | 74° |
| 2026-04-29 18:21 | 51.72020 | -1.74522 | 2268 ft | 99 kts | 76° |
| 2026-04-29 18:21 | 51.72204 | -1.73465 | 2130 ft | 98 kts | 76° |
| 2026-04-29 18:21 | 51.72397 | -1.72398 | 1959 ft | 99 kts | 75° |
| 2026-04-29 18:21 | 51.72595 | -1.71338 | 1818 ft | 98 kts | 74° |
| 2026-04-29 18:22 | 51.72792 | -1.70280 | 1679 ft | 99 kts | 75° |
| 2026-04-29 18:22 | 51.72988 | -1.69208 | 1552 ft | 99 kts | 75° |
| 2026-04-29 18:22 | 51.73182 | -1.68149 | 1403 ft | 98 kts | 75° |
| 2026-04-29 18:22 | 51.73376 | -1.67098 | 1260 ft | 97 kts | 75° |
| 2026-04-29 18:23 | 51.73572 | -1.66030 | 1106 ft | 103 kts | 72° |
| 2026-04-29 18:23 | 51.73776 | -1.64927 | 955 ft | 106 kts | 73° |
| 2026-04-29 18:23 | 51.73994 | -1.63741 | 791 ft | 112 kts | 74° |
| 2026-04-29 18:23 | 51.74215 | -1.62536 | 633 ft | 110 kts | 74° |
| 2026-04-29 18:24 | 51.74432 | -1.61381 | 410 ft | 103 kts | 71° |
| 2026-04-29 18:24 | 51.74637 | -1.60286 | 307 ft | 101 kts | 73° |
| 2026-04-29 18:24 | 51.74808 | -1.59358 | 268 ft | 53 kts | 71° |
| 2026-04-29 18:24 | 51.74839 | -1.59164 | 269 ft | 6 kts | 75° |